sensor_id;sensor_type;location;lat;lon;timestamp;P1;durP1;ratioP1;P2;durP2;ratioP2
81365;SDS011;70822;51.990;22.766;2023-08-20T00:02:00;13.57;;;10.43;;
81365;SDS011;70822;51.990;22.766;2023-08-20T00:17:07;13.37;;;9.67;;
81365;SDS011;70822;51.990;22.766;2023-08-20T00:32:13;12.43;;;8.93;;
81365;SDS011;70822;51.990;22.766;2023-08-20T00:47:19;11.53;;;8.17;;
81365;SDS011;70822;51.990;22.766;2023-08-20T01:02:24;10.73;;;7.60;;
81365;SDS011;70822;51.990;22.766;2023-08-20T01:17:30;10.30;;;7.47;;
81365;SDS011;70822;51.990;22.766;2023-08-20T01:32:35;11.20;;;6.97;;
81365;SDS011;70822;51.990;22.766;2023-08-20T01:47:40;8.83;;;7.07;;
81365;SDS011;70822;51.990;22.766;2023-08-20T02:02:45;7.23;;;5.90;;
81365;SDS011;70822;51.990;22.766;2023-08-20T02:17:50;10.30;;;6.57;;
81365;SDS011;70822;51.990;22.766;2023-08-20T02:32:55;8.97;;;6.40;;
81365;SDS011;70822;51.990;22.766;2023-08-20T02:48:00;9.37;;;6.40;;
81365;SDS011;70822;51.990;22.766;2023-08-20T03:03:05;7.73;;;5.83;;
81365;SDS011;70822;51.990;22.766;2023-08-20T03:18:14;7.97;;;6.33;;
81365;SDS011;70822;51.990;22.766;2023-08-20T03:33:19;9.50;;;6.90;;
81365;SDS011;70822;51.990;22.766;2023-08-20T03:48:24;8.17;;;6.33;;
81365;SDS011;70822;51.990;22.766;2023-08-20T04:03:29;8.87;;;5.90;;
81365;SDS011;70822;51.990;22.766;2023-08-20T04:18:34;9.47;;;6.27;;
81365;SDS011;70822;51.990;22.766;2023-08-20T04:33:39;7.73;;;5.87;;
81365;SDS011;70822;51.990;22.766;2023-08-20T04:48:43;8.03;;;6.53;;
81365;SDS011;70822;51.990;22.766;2023-08-20T05:03:48;6.63;;;6.00;;
81365;SDS011;70822;51.990;22.766;2023-08-20T05:18:54;6.37;;;5.77;;
81365;SDS011;70822;51.990;22.766;2023-08-20T05:33:59;6.50;;;5.73;;
81365;SDS011;70822;51.990;22.766;2023-08-20T05:49:04;8.70;;;7.80;;
81365;SDS011;70822;51.990;22.766;2023-08-20T06:04:11;7.20;;;6.50;;
81365;SDS011;70822;51.990;22.766;2023-08-20T06:19:16;11.13;;;8.47;;
81365;SDS011;70822;51.990;22.766;2023-08-20T06:34:21;11.70;;;8.63;;
81365;SDS011;70822;51.990;22.766;2023-08-20T06:49:26;9.07;;;7.87;;
81365;SDS011;70822;51.990;22.766;2023-08-20T07:04:30;8.10;;;7.30;;
81365;SDS011;70822;51.990;22.766;2023-08-20T07:19:37;10.07;;;7.73;;
81365;SDS011;70822;51.990;22.766;2023-08-20T07:34:42;9.20;;;7.60;;
81365;SDS011;70822;51.990;22.766;2023-08-20T07:49:48;8.60;;;7.47;;
81365;SDS011;70822;51.990;22.766;2023-08-20T08:04:53;8.20;;;7.40;;
81365;SDS011;70822;51.990;22.766;2023-08-20T08:19:58;9.80;;;7.77;;
81365;SDS011;70822;51.990;22.766;2023-08-20T08:35:04;8.93;;;6.90;;
81365;SDS011;70822;51.990;22.766;2023-08-20T08:50:10;8.80;;;6.93;;
81365;SDS011;70822;51.990;22.766;2023-08-20T09:05:14;10.97;;;7.53;;
81365;SDS011;70822;51.990;22.766;2023-08-20T09:20:21;9.90;;;7.83;;
81365;SDS011;70822;51.990;22.766;2023-08-20T09:35:38;7.93;;;7.13;;
81365;SDS011;70822;51.990;22.766;2023-08-20T10:06:01;8.63;;;7.30;;
81365;SDS011;70822;51.990;22.766;2023-08-20T10:21:08;8.60;;;7.70;;
81365;SDS011;70822;51.990;22.766;2023-08-20T10:36:15;8.80;;;7.90;;
81365;SDS011;70822;51.990;22.766;2023-08-20T10:51:26;8.20;;;7.37;;
81365;SDS011;70822;51.990;22.766;2023-08-20T11:06:31;8.63;;;7.60;;
81365;SDS011;70822;51.990;22.766;2023-08-20T11:21:37;8.53;;;7.30;;
81365;SDS011;70822;51.990;22.766;2023-08-20T11:36:43;8.53;;;7.73;;
81365;SDS011;70822;51.990;22.766;2023-08-20T11:51:48;9.03;;;8.13;;
81365;SDS011;70822;51.990;22.766;2023-08-20T12:07:05;7.80;;;7.10;;
81365;SDS011;70822;51.990;22.766;2023-08-20T12:22:14;8.30;;;7.47;;
81365;SDS011;70822;51.990;22.766;2023-08-20T12:37:18;8.17;;;7.37;;
81365;SDS011;70822;51.990;22.766;2023-08-20T12:52:24;7.20;;;6.60;;
81365;SDS011;70822;51.990;22.766;2023-08-20T13:07:30;8.90;;;7.27;;
81365;SDS011;70822;51.990;22.766;2023-08-20T13:22:36;7.57;;;6.87;;
81365;SDS011;70822;51.990;22.766;2023-08-20T13:37:42;7.93;;;6.40;;
81365;SDS011;70822;51.990;22.766;2023-08-20T13:52:48;10.00;;;7.57;;
81365;SDS011;70822;51.990;22.766;2023-08-20T14:07:54;7.90;;;7.10;;
81365;SDS011;70822;51.990;22.766;2023-08-20T14:23:00;8.63;;;7.83;;
81365;SDS011;70822;51.990;22.766;2023-08-20T14:38:06;7.37;;;6.77;;
81365;SDS011;70822;51.990;22.766;2023-08-20T14:53:13;7.07;;;6.27;;
81365;SDS011;70822;51.990;22.766;2023-08-20T15:08:18;7.63;;;6.43;;
81365;SDS011;70822;51.990;22.766;2023-08-20T15:23:27;7.43;;;6.73;;
81365;SDS011;70822;51.990;22.766;2023-08-20T15:38:35;8.50;;;7.40;;
81365;SDS011;70822;51.990;22.766;2023-08-20T15:53:43;9.23;;;7.23;;
81365;SDS011;70822;51.990;22.766;2023-08-20T16:08:51;9.13;;;7.90;;
81365;SDS011;70822;51.990;22.766;2023-08-20T16:23:59;9.97;;;7.57;;
81365;SDS011;70822;51.990;22.766;2023-08-20T16:39:04;9.20;;;8.20;;
81365;SDS011;70822;51.990;22.766;2023-08-20T16:54:09;9.13;;;7.67;;
81365;SDS011;70822;51.990;22.766;2023-08-20T17:09:16;9.00;;;8.13;;
81365;SDS011;70822;51.990;22.766;2023-08-20T17:24:23;10.53;;;9.00;;
81365;SDS011;70822;51.990;22.766;2023-08-20T17:39:28;10.17;;;8.63;;
81365;SDS011;70822;51.990;22.766;2023-08-20T17:54:33;11.27;;;8.80;;
81365;SDS011;70822;51.990;22.766;2023-08-20T18:09:40;11.80;;;10.33;;
81365;SDS011;70822;51.990;22.766;2023-08-20T18:24:46;13.23;;;9.93;;
81365;SDS011;70822;51.990;22.766;2023-08-20T18:39:55;12.83;;;10.60;;
81365;SDS011;70822;51.990;22.766;2023-08-20T18:55:07;13.97;;;10.30;;
81365;SDS011;70822;51.990;22.766;2023-08-20T19:10:13;14.70;;;11.83;;
81365;SDS011;70822;51.990;22.766;2023-08-20T19:25:21;15.73;;;11.33;;
81365;SDS011;70822;51.990;22.766;2023-08-20T19:40:28;14.23;;;10.73;;
81365;SDS011;70822;51.990;22.766;2023-08-20T19:55:39;12.03;;;9.57;;
81365;SDS011;70822;51.990;22.766;2023-08-20T20:10:45;11.87;;;9.40;;
81365;SDS011;70822;51.990;22.766;2023-08-20T20:25:53;13.27;;;9.93;;
81365;SDS011;70822;51.990;22.766;2023-08-20T20:40:59;13.33;;;10.77;;
81365;SDS011;70822;51.990;22.766;2023-08-20T20:56:04;16.67;;;13.97;;
81365;SDS011;70822;51.990;22.766;2023-08-20T21:11:09;15.90;;;11.63;;
81365;SDS011;70822;51.990;22.766;2023-08-20T21:26:14;16.73;;;11.30;;
81365;SDS011;70822;51.990;22.766;2023-08-20T21:41:19;13.27;;;10.30;;
81365;SDS011;70822;51.990;22.766;2023-08-20T21:56:24;17.10;;;11.37;;
81365;SDS011;70822;51.990;22.766;2023-08-20T22:11:30;15.83;;;11.93;;
81365;SDS011;70822;51.990;22.766;2023-08-20T22:26:36;15.03;;;10.90;;
81365;SDS011;70822;51.990;22.766;2023-08-20T22:41:41;17.53;;;11.70;;
81365;SDS011;70822;51.990;22.766;2023-08-20T22:56:46;16.07;;;12.20;;
81365;SDS011;70822;51.990;22.766;2023-08-20T23:11:50;18.40;;;12.40;;
81365;SDS011;70822;51.990;22.766;2023-08-20T23:26:56;17.77;;;13.77;;
81365;SDS011;70822;51.990;22.766;2023-08-20T23:42:01;18.90;;;12.37;;
81365;SDS011;70822;51.990;22.766;2023-08-20T23:57:07;18.83;;;13.70;;
